createdAt,value
2022-10-17T00:02:08.083Z,11.78
2022-10-17T00:04:41.897Z,11.75
2022-10-17T00:07:15.207Z,11.77
2022-10-17T00:09:48.783Z,11.78
2022-10-17T00:12:22.809Z,11.78
2022-10-17T00:14:56.136Z,11.78
2022-10-17T00:17:30.963Z,11.78
2022-10-17T00:20:05.315Z,11.80
2022-10-17T00:22:38.849Z,11.79
2022-10-17T00:25:14.168Z,11.82
2022-10-17T00:27:50.572Z,11.84
2022-10-17T00:30:25.699Z,11.86
2022-10-17T00:32:59.922Z,11.87
2022-10-17T00:35:33.797Z,11.91
2022-10-17T00:38:05.860Z,11.91
2022-10-17T00:40:39.012Z,11.89
2022-10-17T00:43:18.662Z,11.93
2022-10-17T00:45:51.712Z,11.94
2022-10-17T00:48:27.384Z,11.97
2022-10-17T00:51:00.836Z,11.98
2022-10-17T00:53:43.427Z,11.99
2022-10-17T00:56:25.562Z,11.96
2022-10-17T00:59:02.171Z,11.94
2022-10-17T01:01:36.059Z,11.94
2022-10-17T01:04:09.996Z,11.93
2022-10-17T01:06:45.970Z,11.87
2022-10-17T01:09:20.400Z,11.88
2022-10-17T01:11:59.333Z,11.88
2022-10-17T01:14:42.286Z,11.85
2022-10-17T01:17:23.515Z,11.83
2022-10-17T01:20:37.736Z,11.82
2022-10-17T01:23:29.434Z,11.79
2022-10-17T01:26:16.433Z,11.78
2022-10-17T01:29:15.767Z,11.73
2022-10-17T01:31:55.276Z,11.70
2022-10-17T01:34:36.616Z,11.71
2022-10-17T01:37:18.811Z,11.73
2022-10-17T01:39:57.333Z,11.75
2022-10-17T01:42:37.825Z,11.77
2022-10-17T01:45:15.932Z,11.77
2022-10-17T01:48:00.969Z,11.78
2022-10-17T01:50:39.190Z,11.79
2022-10-17T01:53:17.171Z,11.79
2022-10-17T01:58:34.933Z,11.79
2022-10-17T02:01:14.147Z,11.80
2022-10-17T02:03:50.766Z,11.79
2022-10-17T02:06:24.956Z,11.81
2022-10-17T02:08:59.559Z,11.82
2022-10-17T02:11:33.034Z,11.83
2022-10-17T02:14:25.812Z,11.82
2022-10-17T02:17:09.710Z,11.81
2022-10-17T02:20:07.669Z,11.81
2022-10-17T02:22:46.359Z,11.80
2022-10-17T02:25:32.180Z,11.81
2022-10-17T02:28:18.843Z,11.80
2022-10-17T02:30:57.341Z,11.79
2022-10-17T02:33:35.197Z,11.79
2022-10-17T02:36:14.527Z,11.79
2022-10-17T02:38:49.463Z,11.79
2022-10-17T02:41:25.192Z,11.77
2022-10-17T02:44:02.376Z,11.76
2022-10-17T02:46:39.424Z,11.73
2022-10-17T02:49:19.839Z,11.71
2022-10-17T02:52:00.934Z,11.69
2022-10-17T02:54:41.707Z,11.67
2022-10-17T02:57:21.106Z,11.65
2022-10-17T02:59:56.069Z,11.62
2022-10-17T03:02:30.442Z,11.60
2022-10-17T03:05:04.308Z,11.55
2022-10-17T03:07:37.931Z,11.53
2022-10-17T03:10:12.386Z,11.48
2022-10-17T03:12:46.147Z,11.39
2022-10-17T03:15:17.609Z,11.38
2022-10-17T03:17:51.132Z,11.22
2022-10-17T03:20:27.740Z,11.23
2022-10-17T03:23:00.790Z,11.23
2022-10-17T03:25:34.648Z,11.23
2022-10-17T03:28:09.610Z,11.24
2022-10-17T03:30:43.896Z,11.25
2022-10-17T03:33:17.650Z,11.25
2022-10-17T03:35:51.019Z,11.22
2022-10-17T03:38:24.603Z,11.18
2022-10-17T03:41:00.933Z,11.14
2022-10-17T03:43:34.798Z,11.07
2022-10-17T03:46:09.656Z,10.96
2022-10-17T03:48:43.803Z,10.93
2022-10-17T03:51:17.584Z,10.87
2022-10-17T03:53:56.030Z,10.81
2022-10-17T03:56:30.220Z,10.77
2022-10-17T03:59:08.024Z,10.76
2022-10-17T04:01:43.171Z,10.77
2022-10-17T04:04:17.265Z,10.76
2022-10-17T04:06:51.400Z,10.85
2022-10-17T04:09:25.099Z,10.87
2022-10-17T04:12:15.035Z,10.87
2022-10-17T04:14:50.813Z,10.86
2022-10-17T04:17:24.429Z,10.92
2022-10-17T04:19:57.591Z,10.98
2022-10-17T04:22:31.936Z,10.97
2022-10-17T04:25:05.990Z,10.95
2022-10-17T04:27:46.746Z,10.94
2022-10-17T04:30:21.187Z,10.95
2022-10-17T04:32:57.309Z,10.97
2022-10-17T04:35:30.960Z,10.94
2022-10-17T04:38:11.135Z,10.92
2022-10-17T04:40:45.044Z,10.89
2022-10-17T04:43:19.444Z,10.89
2022-10-17T04:45:56.829Z,10.88
2022-10-17T04:48:30.735Z,10.84
2022-10-17T04:51:07.961Z,10.83
2022-10-17T04:53:47.730Z,10.81
2022-10-17T04:56:24.316Z,10.80
2022-10-17T04:58:58.402Z,10.79
2022-10-17T05:01:32.727Z,10.80
2022-10-17T05:04:09.584Z,10.78
2022-10-17T05:06:43.283Z,10.75
2022-10-17T05:09:52.681Z,10.68
2022-10-17T05:12:25.012Z,10.66
2022-10-17T05:15:01.882Z,10.60
2022-10-17T05:17:35.776Z,10.58
2022-10-17T05:20:08.790Z,10.55
2022-10-17T05:22:43.333Z,10.52
2022-10-17T05:25:18.270Z,10.53
2022-10-17T05:27:52.266Z,10.55
2022-10-17T05:30:26.053Z,10.59
2022-10-17T05:33:03.939Z,10.62
2022-10-17T05:35:39.632Z,10.70
2022-10-17T05:38:14.533Z,10.83
2022-10-17T05:40:49.503Z,10.91
2022-10-17T05:43:23.551Z,10.95
2022-10-17T05:46:00.073Z,10.99
2022-10-17T05:48:35.693Z,11.07
2022-10-17T05:51:13.272Z,11.10
2022-10-17T05:53:47.926Z,11.15
2022-10-17T05:56:27.369Z,11.30
2022-10-17T05:59:01.245Z,11.42
2022-10-17T06:01:58.492Z,11.64
2022-10-17T06:04:33.549Z,11.84
2022-10-17T06:07:09.682Z,11.97
2022-10-17T06:09:43.392Z,12.09
2022-10-17T06:12:15.282Z,12.19
2022-10-17T06:14:51.286Z,12.27
2022-10-17T06:17:27.973Z,12.44
2022-10-17T06:20:01.755Z,12.58
2022-10-17T06:22:35.090Z,12.70
2022-10-17T06:25:13.519Z,12.79
2022-10-17T06:27:49.256Z,12.92
2022-10-17T06:30:24.510Z,12.97
2022-10-17T06:32:58.973Z,13.03
2022-10-17T06:35:32.764Z,13.07
2022-10-17T06:38:07.867Z,13.19
2022-10-17T06:40:43.108Z,13.29
2022-10-17T06:43:16.994Z,13.41
2022-10-17T06:46:14.466Z,13.50
2022-10-17T06:49:00.718Z,13.69
2022-10-17T06:51:50.565Z,13.86
2022-10-17T06:54:27.029Z,13.86
2022-10-17T06:57:24.578Z,13.87
2022-10-17T07:00:11.494Z,13.91
2022-10-17T07:02:52.881Z,14.08
2022-10-17T07:05:27.258Z,14.13
2022-10-17T07:08:03.527Z,14.29
2022-10-17T07:10:39.517Z,14.48
2022-10-17T07:13:15.034Z,14.62
2022-10-17T07:15:50.158Z,14.79
2022-10-17T07:18:24.357Z,14.95
2022-10-17T07:21:01.470Z,15.10
2022-10-17T07:23:37.560Z,15.22
2022-10-17T07:26:14.761Z,15.25
2022-10-17T07:28:56.536Z,15.40
2022-10-17T07:31:46.512Z,15.47
2022-10-17T07:34:20.919Z,15.65
2022-10-17T07:36:56.208Z,15.79
2022-10-17T07:39:30.958Z,15.92
2022-10-17T07:42:05.000Z,16.04
2022-10-17T07:44:40.217Z,16.26
2022-10-17T07:47:14.790Z,16.37
2022-10-17T07:49:48.808Z,16.51
2022-10-17T07:52:23.333Z,16.62
2022-10-17T07:54:57.951Z,16.81
2022-10-17T07:57:34.762Z,16.86
2022-10-17T08:00:11.612Z,17.00
2022-10-17T08:02:47.981Z,17.07
2022-10-17T08:05:20.020Z,17.23
2022-10-17T08:07:54.165Z,17.29
2022-10-17T08:10:29.939Z,17.41
2022-10-17T08:13:04.113Z,17.53
2022-10-17T08:15:39.625Z,17.64
2022-10-17T08:18:14.496Z,17.90
2022-10-17T08:20:49.633Z,17.98
2022-10-17T08:23:23.919Z,18.21
2022-10-17T08:26:00.768Z,18.43
2022-10-17T08:28:36.846Z,18.48
2022-10-17T08:31:13.745Z,18.58
2022-10-17T08:33:48.758Z,18.78
2022-10-17T08:36:24.978Z,18.90
2022-10-17T08:38:58.770Z,18.99
2022-10-17T08:41:48.184Z,19.19
2022-10-17T08:44:36.028Z,19.37
2022-10-17T08:47:13.996Z,19.53
2022-10-17T08:49:53.181Z,19.72
2022-10-17T08:52:38.692Z,19.82
2022-10-17T08:57:53.621Z,20.16
2022-10-17T09:00:28.687Z,20.13
2022-10-17T09:03:15.003Z,20.18
2022-10-17T09:05:56.184Z,20.19
2022-10-17T09:08:42.939Z,20.37
2022-10-17T09:11:35.654Z,20.45
2022-10-17T09:14:24.439Z,20.56
2022-10-17T09:17:11.142Z,20.61
2022-10-17T09:19:51.555Z,20.47
2022-10-17T09:22:30.642Z,20.28
2022-10-17T09:25:09.297Z,20.17
2022-10-17T09:27:47.508Z,20.41
2022-10-17T09:30:45.227Z,20.46
2022-10-17T09:33:35.657Z,20.50
2022-10-17T09:36:19.332Z,20.47
2022-10-17T09:38:55.672Z,20.43
2022-10-17T09:41:50.290Z,20.53
2022-10-17T09:44:26.275Z,20.59
2022-10-17T09:47:15.319Z,20.54
2022-10-17T09:49:51.470Z,20.59
2022-10-17T09:52:29.006Z,20.73
2022-10-17T09:55:06.714Z,20.76
2022-10-17T09:57:57.388Z,20.76
2022-10-17T10:00:32.529Z,20.73
2022-10-17T10:03:17.028Z,21.12
2022-10-17T10:06:07.869Z,21.06
2022-10-17T10:08:50.865Z,20.94
2022-10-17T10:11:28.161Z,21.14
2022-10-17T10:14:20.632Z,21.10
2022-10-17T10:16:55.840Z,20.96
2022-10-17T10:19:36.276Z,21.20
2022-10-17T10:22:20.215Z,21.43
2022-10-17T10:25:09.103Z,21.42
2022-10-17T10:27:44.694Z,21.48
2022-10-17T10:30:27.814Z,21.50
2022-10-17T10:33:02.462Z,21.27
2022-10-17T10:35:39.099Z,21.13
2022-10-17T10:38:18.977Z,21.17
2022-10-17T10:40:55.553Z,21.13
2022-10-17T10:43:38.411Z,21.41
2022-10-17T10:46:22.812Z,21.36
2022-10-17T10:49:00.285Z,21.35
2022-10-17T10:51:39.746Z,21.52
2022-10-17T10:54:18.903Z,21.48
2022-10-17T10:56:56.392Z,21.53
2022-10-17T10:59:38.246Z,21.79
2022-10-17T11:02:20.957Z,21.89
2022-10-17T11:05:01.964Z,21.90
2022-10-17T11:07:41.043Z,22.06
2022-10-17T11:10:21.961Z,22.02
2022-10-17T11:13:02.554Z,21.96
2022-10-17T11:15:44.258Z,22.11
2022-10-17T11:18:29.733Z,22.31
2022-10-17T11:21:12.900Z,22.12
2022-10-17T11:23:55.772Z,22.16
2022-10-17T11:26:32.225Z,22.13
2022-10-17T11:29:08.960Z,22.19
2022-10-17T11:31:47.666Z,22.07
2022-10-17T11:34:28.139Z,22.06
2022-10-17T11:37:08.883Z,22.18
2022-10-17T11:39:50.344Z,22.44
2022-10-17T11:42:30.258Z,22.63
2022-10-17T11:45:10.497Z,22.77
2022-10-17T11:47:52.051Z,22.89
2022-10-17T11:53:25.478Z,22.93
2022-10-17T11:56:03.643Z,23.01
2022-10-17T11:58:43.965Z,22.93
2022-10-17T12:01:35.301Z,22.73
2022-10-17T12:04:21.699Z,22.93
2022-10-17T12:07:08.481Z,22.76
2022-10-17T12:09:49.375Z,22.71
2022-10-17T12:12:32.679Z,22.69
2022-10-17T12:15:24.124Z,22.62
2022-10-17T12:18:03.759Z,22.50
2022-10-17T12:20:39.896Z,22.74
2022-10-17T12:23:30.667Z,22.93
2022-10-17T12:26:07.087Z,23.03
2022-10-17T12:28:46.977Z,22.99
2022-10-17T12:31:33.942Z,23.06
2022-10-17T12:34:18.316Z,23.11
2022-10-17T12:36:51.926Z,23.17
2022-10-17T12:39:56.997Z,23.24
2022-10-17T12:42:48.560Z,23.36
2022-10-17T12:45:49.498Z,23.51
2022-10-17T12:48:53.362Z,23.28
2022-10-17T12:51:35.788Z,23.19
2022-10-17T12:54:15.993Z,23.22
2022-10-17T12:56:52.139Z,23.21
2022-10-17T12:59:30.835Z,23.12
2022-10-17T13:02:06.825Z,23.18
2022-10-17T13:04:40.868Z,23.38
2022-10-17T13:07:23.231Z,23.31
2022-10-17T13:09:57.880Z,23.27
2022-10-17T13:12:34.046Z,23.44
2022-10-17T13:15:20.214Z,23.55
2022-10-17T13:18:07.015Z,23.68
2022-10-17T13:20:41.503Z,23.73
2022-10-17T13:23:28.428Z,23.74
2022-10-17T13:26:15.821Z,23.80
2022-10-17T13:29:03.037Z,23.75
2022-10-17T13:31:39.301Z,23.71
2022-10-17T13:34:23.423Z,23.67
2022-10-17T13:36:59.028Z,23.54
2022-10-17T13:39:54.514Z,23.64
2022-10-17T13:42:33.454Z,23.71
2022-10-17T13:45:15.691Z,23.67
2022-10-17T13:47:50.619Z,23.72
2022-10-17T13:50:44.174Z,23.77
2022-10-17T13:53:28.243Z,23.68
2022-10-17T13:56:27.189Z,23.61
2022-10-17T13:59:10.431Z,23.62
2022-10-17T14:01:45.507Z,23.65
2022-10-17T14:04:20.769Z,23.63
2022-10-17T14:06:54.371Z,23.63
2022-10-17T14:09:31.537Z,23.56
2022-10-17T14:12:11.262Z,23.61
2022-10-17T14:15:09.876Z,23.68
2022-10-17T14:17:45.585Z,23.56
2022-10-17T14:23:37.044Z,23.47
2022-10-17T14:26:14.897Z,23.26
2022-10-17T14:28:51.161Z,23.26
2022-10-17T14:31:34.966Z,23.21
2022-10-17T14:34:09.743Z,23.09
2022-10-17T14:36:44.969Z,23.03
2022-10-17T14:39:24.805Z,22.98
2022-10-17T14:42:04.108Z,22.88
2022-10-17T14:44:41.254Z,22.81
2022-10-17T14:47:43.288Z,22.70
2022-10-17T14:50:28.029Z,22.60
2022-10-17T14:53:03.103Z,22.49
2022-10-17T14:55:39.466Z,22.19
2022-10-17T14:58:31.204Z,21.99
2022-10-17T15:01:05.696Z,21.78
2022-10-17T15:03:39.436Z,21.50
2022-10-17T15:06:23.097Z,21.29
2022-10-17T15:08:56.484Z,21.20
2022-10-17T15:11:29.914Z,21.23
2022-10-17T15:14:03.641Z,21.22
2022-10-17T15:16:40.060Z,21.03
2022-10-17T15:19:14.381Z,20.87
2022-10-17T15:21:48.255Z,20.79
2022-10-17T15:24:21.906Z,20.78
2022-10-17T15:26:55.697Z,20.73
2022-10-17T15:29:29.486Z,20.59
2022-10-17T15:32:04.246Z,20.38
2022-10-17T15:34:38.207Z,20.25
2022-10-17T15:37:21.445Z,20.10
2022-10-17T15:39:56.128Z,20.01
2022-10-17T15:42:35.122Z,19.94
2022-10-17T15:45:10.854Z,19.82
2022-10-17T15:47:46.625Z,19.67
2022-10-17T15:50:22.328Z,19.64
2022-10-17T15:52:57.273Z,19.54
2022-10-17T15:55:32.221Z,19.42
2022-10-17T15:58:05.901Z,19.27
2022-10-17T16:00:39.385Z,19.17
2022-10-17T16:03:13.495Z,19.07
2022-10-17T16:05:48.991Z,18.97
2022-10-17T16:08:22.714Z,18.88
2022-10-17T16:10:57.764Z,18.80
2022-10-17T16:13:31.161Z,18.59
2022-10-17T16:16:03.540Z,18.50
2022-10-17T16:18:37.125Z,18.32
2022-10-17T16:21:39.295Z,18.18
2022-10-17T16:24:41.754Z,18.04
2022-10-17T16:27:34.142Z,17.93
2022-10-17T16:30:43.376Z,17.81
2022-10-17T16:33:54.036Z,17.66
2022-10-17T16:36:39.302Z,17.55
2022-10-17T16:39:46.475Z,17.36
2022-10-17T16:46:06.719Z,17.19
2022-10-17T16:48:57.489Z,17.11
2022-10-17T16:58:32.534Z,16.84
2022-10-17T17:01:32.862Z,16.81
2022-10-17T17:04:21.101Z,16.77
2022-10-17T17:06:56.151Z,16.79
2022-10-17T17:09:38.930Z,16.83
2022-10-17T17:12:16.123Z,16.88
2022-10-17T17:14:59.721Z,16.83
2022-10-17T17:17:48.715Z,16.75
2022-10-17T17:20:26.056Z,16.70
2022-10-17T17:22:59.574Z,16.63
2022-10-17T17:25:35.924Z,16.72
2022-10-17T17:28:09.607Z,16.75
2022-10-17T17:30:43.686Z,16.74
2022-10-17T17:33:17.481Z,16.69
2022-10-17T17:35:56.937Z,16.81
2022-10-17T17:38:31.956Z,16.88
2022-10-17T17:41:06.857Z,16.93
2022-10-17T17:43:40.587Z,16.95
2022-10-17T17:46:17.809Z,16.99
2022-10-17T17:48:54.845Z,17.03
2022-10-17T17:51:30.781Z,17.02
2022-10-17T17:54:04.190Z,17.01
2022-10-17T17:56:38.064Z,16.97
2022-10-17T17:59:34.777Z,16.85
2022-10-17T18:02:10.966Z,16.84
2022-10-17T18:04:45.175Z,16.73
2022-10-17T18:07:21.416Z,16.68
2022-10-17T18:09:59.394Z,16.60
2022-10-17T18:12:35.253Z,16.54
2022-10-17T18:15:13.208Z,16.53
2022-10-17T18:17:46.844Z,16.49
2022-10-17T18:20:20.776Z,16.43
2022-10-17T18:22:57.356Z,16.33
2022-10-17T18:25:35.340Z,16.22
2022-10-17T18:28:10.325Z,16.20
2022-10-17T18:30:44.259Z,16.14
2022-10-17T18:33:18.412Z,16.08
2022-10-17T18:35:58.431Z,16.02
2022-10-17T18:38:32.703Z,15.97
2022-10-17T18:41:11.896Z,15.97
2022-10-17T18:43:49.841Z,15.91
2022-10-17T18:46:24.663Z,15.87
2022-10-17T18:48:59.546Z,15.82
2022-10-17T18:51:33.380Z,15.81
2022-10-17T18:54:07.532Z,15.79
2022-10-17T18:56:41.142Z,15.67
2022-10-17T18:59:13.177Z,15.62
2022-10-17T19:01:46.455Z,15.43
2022-10-17T19:04:20.754Z,15.32
2022-10-17T19:06:54.468Z,15.19
2022-10-17T19:09:26.288Z,15.13
2022-10-17T19:12:00.693Z,15.05
2022-10-17T19:14:34.952Z,15.09
2022-10-17T19:17:09.189Z,15.00
2022-10-17T19:19:44.729Z,14.97
2022-10-17T19:22:23.474Z,14.92
2022-10-17T19:24:59.937Z,14.93
2022-10-17T19:27:35.935Z,14.92
2022-10-17T19:30:11.575Z,14.94
2022-10-17T19:32:46.573Z,14.96
2022-10-17T19:35:20.294Z,14.95
2022-10-17T19:37:54.809Z,14.92
2022-10-17T19:40:34.819Z,14.91
2022-10-17T19:43:09.946Z,14.84
2022-10-17T19:45:44.736Z,14.85
2022-10-17T19:48:20.331Z,14.82
2022-10-17T19:50:56.694Z,14.78
2022-10-17T19:53:31.038Z,14.75
2022-10-17T19:56:06.243Z,14.71
2022-10-17T19:58:46.243Z,14.63
2022-10-17T20:01:25.501Z,14.57
2022-10-17T20:04:01.256Z,14.50
2022-10-17T20:06:36.046Z,14.46
2022-10-17T20:09:17.045Z,14.43
2022-10-17T20:11:53.202Z,14.38
2022-10-17T20:14:26.891Z,14.32
2022-10-17T20:17:00.693Z,14.25
2022-10-17T20:19:35.157Z,14.21
2022-10-17T20:22:10.736Z,14.14
2022-10-17T20:24:44.849Z,14.01
2022-10-17T20:27:25.454Z,13.93
2022-10-17T20:30:04.382Z,13.82
2022-10-17T20:32:40.020Z,13.74
2022-10-17T20:35:14.373Z,13.67
2022-10-17T20:37:55.730Z,13.65
2022-10-17T20:40:35.211Z,13.61
2022-10-17T20:43:12.519Z,13.61
2022-10-17T20:45:51.318Z,13.57
2022-10-17T20:48:26.259Z,13.55
2022-10-17T20:51:00.082Z,13.59
2022-10-17T20:53:37.817Z,13.55
2022-10-17T20:56:15.837Z,13.52
2022-10-17T20:58:51.592Z,13.43
2022-10-17T21:01:26.159Z,13.42
2022-10-17T21:04:15.893Z,13.43
2022-10-17T21:06:53.938Z,13.43
2022-10-17T21:09:27.550Z,13.45
2022-10-17T21:14:41.184Z,13.51
2022-10-17T21:17:14.985Z,13.48
2022-10-17T21:19:50.574Z,13.43
2022-10-17T21:22:24.228Z,13.40
2022-10-17T21:24:57.645Z,13.38
2022-10-17T21:27:31.837Z,13.34
2022-10-17T21:32:55.373Z,13.28
2022-10-17T21:35:29.031Z,13.27
2022-10-17T21:38:02.420Z,13.26
2022-10-17T21:40:35.777Z,13.29
2022-10-17T21:43:09.481Z,13.18
2022-10-17T21:45:43.579Z,13.13
2022-10-17T21:48:16.849Z,13.11
2022-10-17T21:50:50.720Z,13.08
2022-10-17T21:53:25.563Z,13.04
2022-10-17T21:56:00.912Z,13.00
2022-10-17T21:58:34.666Z,13.03
2022-10-17T22:01:11.023Z,13.00
2022-10-17T22:03:47.084Z,12.92
2022-10-17T22:06:40.542Z,12.86
2022-10-17T22:09:17.688Z,12.79
2022-10-17T22:11:53.194Z,12.76
2022-10-17T22:14:28.158Z,12.71
2022-10-17T22:17:02.035Z,12.72
2022-10-17T22:19:35.733Z,12.91
2022-10-17T22:22:12.125Z,12.89
2022-10-17T22:24:47.757Z,12.83
2022-10-17T22:27:21.634Z,12.80
2022-10-17T22:29:54.808Z,12.82
2022-10-17T22:32:28.651Z,12.82
2022-10-17T22:35:01.809Z,12.77
2022-10-17T22:37:35.700Z,12.77
2022-10-17T22:40:10.944Z,12.83
2022-10-17T22:42:44.399Z,12.86
2022-10-17T22:45:16.232Z,12.84
2022-10-17T22:47:49.838Z,12.79
2022-10-17T22:50:24.245Z,12.81
2022-10-17T22:52:59.704Z,12.81
2022-10-17T22:55:32.722Z,12.77
2022-10-17T22:58:06.331Z,12.72
2022-10-17T23:00:41.429Z,12.69
2022-10-17T23:03:16.393Z,12.64
2022-10-17T23:05:49.977Z,12.59
2022-10-17T23:08:24.005Z,12.54
2022-10-17T23:10:58.033Z,12.50
2022-10-17T23:13:32.110Z,12.48
2022-10-17T23:16:05.871Z,12.46
2022-10-17T23:18:39.961Z,12.42
2022-10-17T23:21:13.891Z,12.32
2022-10-17T23:23:47.346Z,12.32
2022-10-17T23:26:18.755Z,12.24
2022-10-17T23:28:55.776Z,12.20
2022-10-17T23:31:29.528Z,12.24
2022-10-17T23:34:01.577Z,12.22
2022-10-17T23:36:34.938Z,12.15
2022-10-17T23:39:11.427Z,12.15
2022-10-17T23:41:44.776Z,12.13
2022-10-17T23:44:21.408Z,12.11
2022-10-17T23:46:54.848Z,12.07
2022-10-17T23:49:26.768Z,12.01
2022-10-17T23:52:00.430Z,11.92
2022-10-17T23:54:32.383Z,11.88
2022-10-17T23:57:06.266Z,11.81
2022-10-17T23:59:40.924Z,11.79
